Albrightsville, Pennsylvania
Current Conditions -  °F | °C
As of 8:53 PM on Wednesday 17 Dec 2014 (Local Time) from KMPO Reporting Station
Overcast Overcast  
Wind Chill: 22°   Ceiling: 3300
Heat Index: 33°   Visibility: 10mi
Dew Point: 24°   Wind: 17mph
Humidity: 70%   Direction: 290°WNW
Pressure: 29.85"   Gusts: 25mph
Location:  41°N, 75.53°W
Report Text: KMPO 180153Z AUTO 29015G22KT 10SM OVC033 01/M04 A2985 RMK AO2 SLP124 T00061044
Loading
Personal Weather Stations






























Interactive Weather Map New forecast layout! Learn more

10-Day Weather Forecast

Advertisements
Track Severe Weather on mobile